createdAt,value
2018-07-24T00:00:56.159Z,5.90
2018-07-24T00:01:55.468Z,6.40
2018-07-24T00:02:55.604Z,5.50
2018-07-24T00:03:55.764Z,6.60
2018-07-24T00:04:55.930Z,5.80
2018-07-24T00:05:56.044Z,5.70
2018-07-24T00:06:56.197Z,5.40
2018-07-24T00:07:56.338Z,5.70
2018-07-24T00:08:56.481Z,5.90
2018-07-24T00:09:56.670Z,6.20
2018-07-24T00:10:56.790Z,6.10
2018-07-24T00:11:56.910Z,5.80
2018-07-24T00:12:57.075Z,5.90
2018-07-24T00:13:57.203Z,7.00
2018-07-24T00:14:57.345Z,6.00
2018-07-24T00:15:57.495Z,6.30
2018-07-24T00:16:57.621Z,6.40
2018-07-24T00:17:57.764Z,7.20
2018-07-24T00:18:57.901Z,6.80
2018-07-24T00:19:58.134Z,5.70
2018-07-24T00:20:58.146Z,5.30
2018-07-24T00:21:58.305Z,5.90
2018-07-24T00:22:59.201Z,5.40
2018-07-24T00:23:58.589Z,6.20
2018-07-24T00:24:58.739Z,5.80
2018-07-24T00:25:58.905Z,6.50
2018-07-24T00:26:59.055Z,5.60
2018-07-24T00:27:59.196Z,5.80
2018-07-24T00:28:59.335Z,5.30
2018-07-24T00:29:59.472Z,6.60
2018-07-24T00:30:59.616Z,5.20
2018-07-24T00:31:59.757Z,5.60
2018-07-24T00:32:59.897Z,5.90
2018-07-24T00:34:00.036Z,6.80
2018-07-24T00:35:00.173Z,5.00
2018-07-24T00:36:00.310Z,5.10
2018-07-24T00:37:00.453Z,5.70
2018-07-24T00:38:00.598Z,5.30
2018-07-24T00:39:00.734Z,6.50
2018-07-24T00:40:00.875Z,6.30
2018-07-24T00:41:01.015Z,6.90
2018-07-24T00:42:01.157Z,5.80
2018-07-24T00:43:01.301Z,5.20
2018-07-24T00:44:01.439Z,5.40
2018-07-24T00:45:01.581Z,6.50
2018-07-24T00:46:01.722Z,5.60
2018-07-24T00:47:01.863Z,5.50
2018-07-24T00:48:02.002Z,6.90
2018-07-24T00:49:02.143Z,6.00
2018-07-24T00:50:02.279Z,6.10
2018-07-24T00:51:02.419Z,5.30
2018-07-24T00:52:02.556Z,5.80
2018-07-24T00:53:02.693Z,5.80
2018-07-24T00:54:02.841Z,5.30
2018-07-24T00:55:02.969Z,5.90
2018-07-24T00:56:03.115Z,5.70
2018-07-24T00:57:03.257Z,6.30
2018-07-24T00:58:03.390Z,6.80
2018-07-24T00:59:03.529Z,7.20
2018-07-24T01:00:03.679Z,5.50
2018-07-24T01:01:03.815Z,6.90
2018-07-24T01:02:03.955Z,5.50
2018-07-24T01:03:04.097Z,6.00
2018-07-24T01:04:04.233Z,6.20
2018-07-24T01:05:04.375Z,5.90
2018-07-24T01:06:04.617Z,5.80
2018-07-24T01:07:04.678Z,5.80
2018-07-24T01:08:04.820Z,5.40
2018-07-24T01:09:04.962Z,5.70
2018-07-24T01:10:05.150Z,5.90
2018-07-24T01:11:05.306Z,5.70
2018-07-24T01:12:05.449Z,7.00
2018-07-24T01:13:05.581Z,6.80
2018-07-24T01:14:05.718Z,6.10
2018-07-24T01:15:05.858Z,6.50
2018-07-24T01:16:05.995Z,6.60
2018-07-24T01:17:06.134Z,6.20
2018-07-24T01:18:06.271Z,6.10
2018-07-24T01:19:06.427Z,5.90
2018-07-24T01:20:06.581Z,5.40
2018-07-24T01:21:06.721Z,5.60
2018-07-24T01:22:07.505Z,5.50
2018-07-24T01:23:07.048Z,6.40
2018-07-24T01:24:07.183Z,6.50
2018-07-24T01:25:07.356Z,8.30
2018-07-24T01:26:07.496Z,6.10
2018-07-24T01:27:07.636Z,5.30
2018-07-24T01:28:07.789Z,5.50
2018-07-24T01:29:07.930Z,5.80
2018-07-24T01:30:08.065Z,5.70
2018-07-24T01:31:08.201Z,6.20
2018-07-24T01:32:08.336Z,5.50
2018-07-24T01:33:08.474Z,6.00
2018-07-24T01:34:08.677Z,5.70
2018-07-24T01:35:08.688Z,6.30
2018-07-24T01:36:08.829Z,6.40
2018-07-24T01:37:08.979Z,6.90
2018-07-24T01:38:09.114Z,5.50
2018-07-24T01:39:09.259Z,5.50
2018-07-24T01:40:09.411Z,6.50
2018-07-24T01:41:09.548Z,5.20
2018-07-24T01:42:09.688Z,5.00
2018-07-24T01:43:09.848Z,7.20
2018-07-24T01:44:09.986Z,5.70
2018-07-24T01:45:10.124Z,7.60
2018-07-24T01:46:10.283Z,7.50
2018-07-24T01:47:10.410Z,6.50
2018-07-24T01:48:10.556Z,5.40
2018-07-24T01:49:10.701Z,6.10
2018-07-24T01:50:10.845Z,5.90
2018-07-24T01:51:10.988Z,5.70
2018-07-24T01:52:11.128Z,5.40
2018-07-24T01:53:11.271Z,5.60
2018-07-24T01:54:11.411Z,5.30
2018-07-24T01:55:11.548Z,5.80
2018-07-24T01:56:11.691Z,5.50
2018-07-24T01:57:11.834Z,6.00
2018-07-24T01:58:11.974Z,5.80
2018-07-24T01:59:12.110Z,6.10
2018-07-24T02:00:12.250Z,5.90
2018-07-24T02:01:12.393Z,6.20
2018-07-24T02:02:12.535Z,6.90
2018-07-24T02:03:12.672Z,6.50
2018-07-24T02:04:12.813Z,6.10
2018-07-24T02:05:12.957Z,5.90
2018-07-24T02:06:13.101Z,7.50
2018-07-24T02:07:13.237Z,5.90
2018-07-24T02:08:13.382Z,6.00
2018-07-24T02:09:13.513Z,6.20
2018-07-24T02:10:13.655Z,6.20
2018-07-24T02:11:13.793Z,6.70
2018-07-24T02:12:13.934Z,6.20
2018-07-24T02:13:14.073Z,5.60
2018-07-24T02:14:14.210Z,6.60
2018-07-24T02:15:14.358Z,5.70
2018-07-24T02:16:14.498Z,6.00
2018-07-24T02:17:14.634Z,6.10
2018-07-24T02:18:14.778Z,5.90
2018-07-24T02:19:14.916Z,5.50
2018-07-24T02:20:15.059Z,6.10
2018-07-24T02:21:15.206Z,7.60
2018-07-24T02:22:15.345Z,6.50
2018-07-24T02:23:15.486Z,6.00
2018-07-24T02:24:15.625Z,6.60
2018-07-24T02:25:15.766Z,6.60
2018-07-24T02:26:15.904Z,6.20
2018-07-24T02:27:16.047Z,6.50
2018-07-24T02:28:16.192Z,6.20
2018-07-24T02:29:16.330Z,7.20
2018-07-24T02:30:16.469Z,6.30
2018-07-24T02:31:16.598Z,6.40
2018-07-24T02:32:16.731Z,6.50
2018-07-24T02:33:16.870Z,7.30
2018-07-24T02:34:17.025Z,6.30
2018-07-24T02:35:17.177Z,6.30
2018-07-24T02:36:17.322Z,6.20
2018-07-24T02:37:17.470Z,7.10
2018-07-24T02:38:17.608Z,7.40
2018-07-24T02:39:17.745Z,7.50
2018-07-24T02:40:17.895Z,7.00
2018-07-24T02:41:18.031Z,6.40
2018-07-24T02:42:18.172Z,6.20
2018-07-24T02:43:18.336Z,6.20
2018-07-24T02:44:18.469Z,6.50
2018-07-24T02:45:18.611Z,6.60
2018-07-24T02:46:18.777Z,6.10
2018-07-24T02:47:18.902Z,7.00
2018-07-24T02:48:19.043Z,7.00
2018-07-24T02:49:19.187Z,6.10
2018-07-24T02:50:19.326Z,6.40
2018-07-24T02:51:19.465Z,6.30
2018-07-24T02:52:19.617Z,5.90
2018-07-24T02:53:19.765Z,6.10
2018-07-24T02:54:19.911Z,6.40
2018-07-24T02:55:20.087Z,6.50
2018-07-24T02:56:20.203Z,6.40
2018-07-24T02:57:20.333Z,6.50
2018-07-24T02:58:20.502Z,6.30
2018-07-24T02:59:20.624Z,6.60
2018-07-24T03:00:20.758Z,6.20
2018-07-24T03:01:20.910Z,6.50
2018-07-24T03:02:21.056Z,5.90
2018-07-24T03:03:21.194Z,6.50
2018-07-24T03:04:21.330Z,6.40
2018-07-24T03:05:21.482Z,6.90
2018-07-24T03:06:21.620Z,6.20
2018-07-24T03:07:21.766Z,7.00
2018-07-24T03:08:21.913Z,6.90
2018-07-24T03:09:22.052Z,6.20
2018-07-24T03:10:22.204Z,6.40
2018-07-24T03:11:22.338Z,6.40
2018-07-24T03:12:22.483Z,7.40
2018-07-24T03:13:22.628Z,7.10
2018-07-24T03:14:22.763Z,6.90
2018-07-24T03:15:22.898Z,6.40
2018-07-24T03:16:23.140Z,6.40
2018-07-24T03:17:23.184Z,7.50
2018-07-24T03:18:23.329Z,6.70
2018-07-24T03:19:23.460Z,6.40
2018-07-24T03:20:23.610Z,7.20
2018-07-24T03:21:23.748Z,6.50
2018-07-24T03:22:23.891Z,6.80
2018-07-24T03:23:24.033Z,6.80
2018-07-24T03:24:24.176Z,7.00
2018-07-24T03:25:24.313Z,6.20
2018-07-24T03:26:24.456Z,6.40
2018-07-24T03:27:24.593Z,6.50
2018-07-24T03:28:24.736Z,6.70
2018-07-24T03:29:25.525Z,6.40
2018-07-24T03:30:25.041Z,6.20
2018-07-24T03:31:25.177Z,7.30
2018-07-24T03:32:25.326Z,7.00
2018-07-24T03:33:25.466Z,6.70
2018-07-24T03:34:25.606Z,7.90
2018-07-24T03:35:25.749Z,5.70
2018-07-24T03:36:25.886Z,7.10
2018-07-24T03:37:26.032Z,6.80
2018-07-24T03:38:26.169Z,6.90
2018-07-24T03:39:26.313Z,7.00
2018-07-24T03:40:26.452Z,7.10
2018-07-24T03:41:26.589Z,7.20
2018-07-24T03:42:26.732Z,7.00
2018-07-24T03:43:26.871Z,6.90
2018-07-24T03:44:27.024Z,6.90
2018-07-24T03:45:27.170Z,7.60
2018-07-24T03:46:27.303Z,8.10
2018-07-24T03:47:27.448Z,6.70
2018-07-24T03:48:27.582Z,7.20
2018-07-24T03:49:27.722Z,7.80
2018-07-24T03:50:27.865Z,7.10
2018-07-24T03:51:28.004Z,7.50
2018-07-24T03:52:28.150Z,7.10
2018-07-24T03:53:28.297Z,7.20
2018-07-24T03:54:28.438Z,8.00
2018-07-24T03:55:28.599Z,7.10
2018-07-24T03:56:28.722Z,7.80
2018-07-24T03:57:28.864Z,7.70
2018-07-24T03:58:29.018Z,8.90
2018-07-24T03:59:29.147Z,7.40
2018-07-24T04:00:29.289Z,6.90
2018-07-24T04:01:29.420Z,7.50
2018-07-24T04:02:29.554Z,7.20
2018-07-24T04:03:29.693Z,7.40
2018-07-24T04:04:29.857Z,6.90
2018-07-24T04:05:29.989Z,6.40
2018-07-24T04:06:30.130Z,7.40
2018-07-24T04:07:30.273Z,8.00
2018-07-24T04:08:30.426Z,7.20
2018-07-24T04:09:30.570Z,7.40
2018-07-24T04:10:30.711Z,8.90
2018-07-24T04:11:30.845Z,7.10
2018-07-24T04:12:30.984Z,7.50
2018-07-24T04:13:31.131Z,7.10
2018-07-24T04:14:31.263Z,7.80
2018-07-24T04:15:31.403Z,7.10
2018-07-24T04:16:31.552Z,7.70
2018-07-24T04:17:31.692Z,7.50
2018-07-24T04:18:31.833Z,7.80
2018-07-24T04:19:31.972Z,8.20
2018-07-24T04:20:32.105Z,8.20
2018-07-24T04:21:32.243Z,7.30
2018-07-24T04:22:32.390Z,7.00
2018-07-24T04:23:32.535Z,7.20
2018-07-24T04:24:32.674Z,7.40
2018-07-24T04:25:32.889Z,7.30
2018-07-24T04:26:32.895Z,7.50
2018-07-24T04:27:33.032Z,7.60
2018-07-24T04:28:33.196Z,8.00
2018-07-24T04:29:33.308Z,7.20
2018-07-24T04:30:33.449Z,7.20
2018-07-24T04:31:33.613Z,7.40
2018-07-24T04:32:33.744Z,8.80
2018-07-24T04:33:33.880Z,8.00
2018-07-24T04:34:34.040Z,6.90
2018-07-24T04:35:34.174Z,8.50
2018-07-24T04:36:34.326Z,7.00
2018-07-24T04:37:34.459Z,7.40
2018-07-24T04:38:34.600Z,7.80
2018-07-24T04:39:34.739Z,7.90
2018-07-24T04:40:34.889Z,8.40
2018-07-24T04:41:35.026Z,7.20
2018-07-24T04:42:35.175Z,7.20
2018-07-24T04:43:35.310Z,7.00
2018-07-24T04:44:35.452Z,6.80
2018-07-24T04:45:35.590Z,7.10
2018-07-24T04:46:35.738Z,7.60
2018-07-24T04:47:35.875Z,7.60
2018-07-24T04:48:36.074Z,6.80
2018-07-24T04:49:36.156Z,7.00
2018-07-24T04:50:36.303Z,7.00
2018-07-24T04:51:36.441Z,7.40
2018-07-24T04:52:36.596Z,7.10
2018-07-24T04:53:36.721Z,8.70
2018-07-24T04:54:36.862Z,6.90
2018-07-24T04:55:37.001Z,7.10
2018-07-24T04:56:37.140Z,7.60
2018-07-24T04:57:37.280Z,7.10
2018-07-24T04:58:37.417Z,7.40
2018-07-24T04:59:37.560Z,9.50
2018-07-24T05:00:37.703Z,7.40
2018-07-24T05:01:37.843Z,8.40
2018-07-24T05:02:38.000Z,9.50
2018-07-24T05:03:38.122Z,7.20
2018-07-24T05:04:38.257Z,8.50
2018-07-24T05:05:38.398Z,8.10
2018-07-24T05:06:38.545Z,7.90
2018-07-24T05:07:38.693Z,7.70
2018-07-24T05:08:38.832Z,10.00
2018-07-24T05:09:39.061Z,8.40
2018-07-24T05:10:39.059Z,11.70
2018-07-24T05:11:39.192Z,10.50
2018-07-24T05:12:39.336Z,11.50
2018-07-24T05:13:39.473Z,12.40
2018-07-24T05:14:39.615Z,10.40
2018-07-24T05:15:39.753Z,11.50
2018-07-24T05:16:39.946Z,10.50
2018-07-24T05:17:40.065Z,10.90
2018-07-24T05:18:40.208Z,10.00
2018-07-24T05:19:40.373Z,12.00
2018-07-24T05:20:40.497Z,13.40
2018-07-24T05:21:40.643Z,11.80
2018-07-24T05:22:40.834Z,10.10
2018-07-24T05:23:40.974Z,16.00
2018-07-24T05:24:41.081Z,16.20
2018-07-24T05:25:41.283Z,13.10
2018-07-24T05:26:41.365Z,9.40
2018-07-24T05:27:41.508Z,14.60
2018-07-24T05:28:41.657Z,12.10
2018-07-24T05:29:41.791Z,11.00
2018-07-24T05:30:41.934Z,10.80
2018-07-24T05:31:42.095Z,275.60
2018-07-24T05:32:42.224Z,279.00
2018-07-24T05:33:42.367Z,197.20
2018-07-24T05:34:42.522Z,330.00
2018-07-24T05:35:42.658Z,37.30
2018-07-24T05:36:42.802Z,11.20
2018-07-24T05:37:42.957Z,14.10
2018-07-24T05:38:43.108Z,12.00
2018-07-24T05:39:43.248Z,11.80
2018-07-24T05:40:43.409Z,10.40
2018-07-24T05:41:43.539Z,9.30
2018-07-24T05:42:43.679Z,11.10
2018-07-24T05:43:43.831Z,8.70
2018-07-24T05:44:43.964Z,9.80
2018-07-24T05:45:44.109Z,9.90
2018-07-24T05:46:44.270Z,10.20
2018-07-24T05:47:44.405Z,10.30
2018-07-24T05:48:44.571Z,9.00
2018-07-24T05:49:44.709Z,9.00
2018-07-24T05:50:44.826Z,9.30
2018-07-24T05:51:44.965Z,8.90
2018-07-24T05:52:45.109Z,9.90
2018-07-24T05:53:45.244Z,9.30
2018-07-24T05:54:45.401Z,9.30
2018-07-24T05:55:45.538Z,9.00
2018-07-24T05:56:45.949Z,10.10
2018-07-24T05:57:45.855Z,8.90
2018-07-24T05:58:45.998Z,8.80
2018-07-24T05:59:46.134Z,8.50
2018-07-24T06:00:46.295Z,8.80
2018-07-24T06:01:46.415Z,8.60
2018-07-24T06:02:46.554Z,8.90
2018-07-24T06:03:46.697Z,8.90
2018-07-24T06:04:46.836Z,9.20
2018-07-24T06:05:46.982Z,9.30
2018-07-24T06:06:47.136Z,9.60
2018-07-24T06:07:47.263Z,9.10
2018-07-24T06:08:48.064Z,9.10
2018-07-24T06:09:47.615Z,8.90
2018-07-24T06:10:47.756Z,9.30
2018-07-24T06:11:47.885Z,11.80
2018-07-24T06:12:48.024Z,9.60
2018-07-24T06:13:48.168Z,9.40
2018-07-24T06:14:48.304Z,9.20
2018-07-24T06:15:48.446Z,9.10
2018-07-24T06:16:48.653Z,8.50
2018-07-24T06:17:48.733Z,10.30
2018-07-24T06:18:48.868Z,10.50
2018-07-24T06:19:49.006Z,11.60
2018-07-24T06:20:49.149Z,13.70
2018-07-24T06:21:49.330Z,9.10
2018-07-24T06:22:49.429Z,9.20
2018-07-24T06:23:49.570Z,9.60
2018-07-24T06:24:49.717Z,9.80
2018-07-24T06:25:49.867Z,9.50
2018-07-24T06:26:50.017Z,10.20
2018-07-24T06:27:50.153Z,9.90
2018-07-24T06:28:50.290Z,9.60
2018-07-24T06:29:50.447Z,12.00
2018-07-24T06:30:50.591Z,10.60
2018-07-24T06:31:50.730Z,9.30
2018-07-24T06:32:50.880Z,9.10
2018-07-24T06:33:51.021Z,9.90
2018-07-24T06:34:51.158Z,10.00
2018-07-24T06:35:51.307Z,11.30
2018-07-24T06:36:51.454Z,11.40
2018-07-24T06:37:51.600Z,25.70
2018-07-24T06:38:51.735Z,21.70
2018-07-24T06:39:51.887Z,12.20
2018-07-24T06:40:52.026Z,13.20
2018-07-24T06:41:52.173Z,11.00
2018-07-24T06:42:52.306Z,10.20
2018-07-24T06:43:52.452Z,9.90
2018-07-24T06:44:53.083Z,9.20
2018-07-24T06:45:52.752Z,10.10
2018-07-24T06:46:52.931Z,10.70
2018-07-24T06:47:53.067Z,11.00
2018-07-24T06:48:53.209Z,12.00
2018-07-24T06:49:53.369Z,10.20
2018-07-24T06:50:53.508Z,10.50
2018-07-24T06:51:53.674Z,11.00
2018-07-24T06:52:53.797Z,10.50
2018-07-24T06:53:53.940Z,9.00
2018-07-24T06:54:54.088Z,8.00
2018-07-24T06:55:54.230Z,8.90
2018-07-24T06:56:54.362Z,8.70
2018-07-24T06:57:54.503Z,8.10
2018-07-24T06:58:54.646Z,8.10
2018-07-24T06:59:54.793Z,8.10
2018-07-24T07:00:54.935Z,8.50
2018-07-24T07:01:55.088Z,7.60
2018-07-24T07:02:55.217Z,7.50
2018-07-24T07:03:55.368Z,7.80
2018-07-24T07:04:55.555Z,9.00
2018-07-24T07:05:55.650Z,8.00
2018-07-24T07:06:55.787Z,7.80
2018-07-24T07:07:55.950Z,7.60
2018-07-24T07:08:56.082Z,7.60
2018-07-24T07:09:56.225Z,7.60
2018-07-24T07:10:56.370Z,7.00
2018-07-24T07:11:56.509Z,7.00
2018-07-24T07:12:56.652Z,9.30
2018-07-24T07:13:56.805Z,7.00
2018-07-24T07:14:56.946Z,6.90
2018-07-24T07:15:57.092Z,6.90
2018-07-24T07:16:57.237Z,7.50
2018-07-24T07:17:57.375Z,7.90
2018-07-24T07:18:57.518Z,7.20
2018-07-24T07:19:57.666Z,7.00
2018-07-24T07:20:57.809Z,6.90
2018-07-24T07:21:57.954Z,7.10
2018-07-24T07:22:58.094Z,7.00
2018-07-24T07:23:58.258Z,7.20
2018-07-24T07:24:58.403Z,7.40
2018-07-24T07:25:58.555Z,7.10
2018-07-24T07:26:58.691Z,6.50
2018-07-24T07:27:58.833Z,7.10
2018-07-24T07:28:58.973Z,6.60
2018-07-24T07:29:59.114Z,6.70
2018-07-24T07:30:59.260Z,6.60
2018-07-24T07:31:59.399Z,6.10
2018-07-24T07:32:59.548Z,7.20
2018-07-24T07:33:59.683Z,6.70
2018-07-24T07:34:59.827Z,6.60
2018-07-24T07:35:59.976Z,9.00
2018-07-24T07:37:00.118Z,8.70
2018-07-24T07:38:00.264Z,12.10
2018-07-24T07:39:00.403Z,13.40
2018-07-24T07:40:00.543Z,8.30
2018-07-24T07:41:00.688Z,6.60
2018-07-24T07:42:00.831Z,6.90
2018-07-24T07:43:00.971Z,6.30
2018-07-24T07:44:01.167Z,7.40
2018-07-24T07:45:01.258Z,7.00
2018-07-24T07:46:01.406Z,8.30
2018-07-24T07:47:01.546Z,7.20
2018-07-24T07:48:01.693Z,10.00
2018-07-24T07:49:01.835Z,9.00
2018-07-24T07:50:01.974Z,9.30
2018-07-24T07:51:02.116Z,7.80
2018-07-24T07:52:02.276Z,14.80
2018-07-24T07:53:02.412Z,7.60
2018-07-24T07:54:02.555Z,7.70
2018-07-24T07:55:02.704Z,9.70
2018-07-24T07:56:02.837Z,7.00
2018-07-24T07:57:02.981Z,6.70
2018-07-24T07:58:03.123Z,6.70
2018-07-24T07:59:03.292Z,6.50
2018-07-24T08:00:03.431Z,8.50
2018-07-24T08:01:03.567Z,6.60
2018-07-24T08:02:03.713Z,7.60
2018-07-24T08:03:03.857Z,6.60
2018-07-24T08:04:03.997Z,6.20
2018-07-24T08:05:04.140Z,8.30
2018-07-24T08:06:04.286Z,6.80
2018-07-24T08:07:04.428Z,6.60
2018-07-24T08:08:04.567Z,7.90
2018-07-24T08:09:04.715Z,7.80
2018-07-24T08:10:04.860Z,6.80
2018-07-24T08:11:05.048Z,7.10
2018-07-24T08:12:05.191Z,7.50
2018-07-24T08:13:05.328Z,6.10
2018-07-24T08:14:05.540Z,6.90
2018-07-24T08:15:05.638Z,6.30
2018-07-24T08:16:05.783Z,6.60
2018-07-24T08:17:05.928Z,6.10
2018-07-24T08:18:06.068Z,6.10
2018-07-24T08:19:06.235Z,6.60
2018-07-24T08:20:06.386Z,7.70
2018-07-24T08:21:06.535Z,6.60
2018-07-24T08:22:06.705Z,6.50
2018-07-24T08:23:06.847Z,6.00
2018-07-24T08:24:06.993Z,6.30
2018-07-24T08:25:07.164Z,6.60
2018-07-24T08:26:07.298Z,7.20
2018-07-24T08:27:07.437Z,5.80
2018-07-24T08:28:07.643Z,6.80
2018-07-24T08:29:07.732Z,6.00
2018-07-24T08:30:07.870Z,6.20
2018-07-24T08:31:08.032Z,7.50
2018-07-24T08:32:08.173Z,5.80
2018-07-24T08:33:08.307Z,8.50
2018-07-24T08:34:08.490Z,6.00
2018-07-24T08:35:08.625Z,5.80
2018-07-24T08:36:08.772Z,7.30
2018-07-24T08:37:08.936Z,5.80
2018-07-24T08:38:09.061Z,6.10
2018-07-24T08:39:09.220Z,7.30
2018-07-24T08:40:09.385Z,6.00
2018-07-24T08:41:09.515Z,5.70
2018-07-24T08:42:09.655Z,7.20
2018-07-24T08:43:09.805Z,5.80
2018-07-24T08:44:09.942Z,6.20
2018-07-24T08:45:10.089Z,6.60
2018-07-24T08:46:10.251Z,7.20
2018-07-24T08:47:10.392Z,6.10
2018-07-24T08:48:10.531Z,6.10
2018-07-24T08:49:10.754Z,7.10
2018-07-24T08:50:10.826Z,5.70
2018-07-24T08:51:10.967Z,6.70
2018-07-24T08:52:11.107Z,5.50
2018-07-24T08:53:11.472Z,5.90
2018-07-24T08:54:11.536Z,6.20
2018-07-24T08:55:11.799Z,6.40
2018-07-24T08:56:11.699Z,5.90
2018-07-24T08:57:11.842Z,8.20
2018-07-24T08:58:12.007Z,5.40
2018-07-24T08:59:12.193Z,5.80
2018-07-24T09:00:12.291Z,6.30
2018-07-24T09:01:12.435Z,8.20
2018-07-24T09:02:12.579Z,5.80
2018-07-24T09:03:12.753Z,7.00
2018-07-24T09:04:12.897Z,6.80
2018-07-24T09:05:13.033Z,7.20
2018-07-24T09:06:13.176Z,5.60
2018-07-24T09:07:13.310Z,6.80
2018-07-24T09:08:13.465Z,14.00
2018-07-24T09:09:13.611Z,8.40
2018-07-24T09:10:13.758Z,10.80
2018-07-24T09:11:13.906Z,5.90
2018-07-24T09:12:14.051Z,6.90
2018-07-24T09:13:14.193Z,5.90
2018-07-24T09:14:14.342Z,6.10
2018-07-24T09:15:14.481Z,8.70
2018-07-24T09:16:14.631Z,6.10
2018-07-24T09:17:14.788Z,5.80
2018-07-24T09:18:14.926Z,6.60
2018-07-24T09:19:15.077Z,5.80
2018-07-24T09:20:15.218Z,5.60
2018-07-24T09:21:15.361Z,6.20
2018-07-24T09:22:15.510Z,6.60
2018-07-24T09:23:15.656Z,5.60
2018-07-24T09:24:15.800Z,6.00
2018-07-24T09:25:15.938Z,5.50
2018-07-24T09:26:16.089Z,9.30
2018-07-24T09:27:16.231Z,5.50
2018-07-24T09:28:16.376Z,5.70
2018-07-24T09:29:16.519Z,5.90
2018-07-24T09:30:16.660Z,7.20
2018-07-24T09:31:16.810Z,5.40
2018-07-24T09:32:16.966Z,6.50
2018-07-24T09:33:17.108Z,5.40
2018-07-24T09:34:17.248Z,7.40
2018-07-24T09:35:17.406Z,7.10
2018-07-24T09:36:17.549Z,6.30
2018-07-24T09:37:17.690Z,7.60
2018-07-24T09:38:17.833Z,5.50
2018-07-24T09:39:17.968Z,5.60
2018-07-24T09:40:18.136Z,6.40
2018-07-24T09:41:18.300Z,6.00
2018-07-24T09:42:18.432Z,7.80
2018-07-24T09:43:18.581Z,5.80
2018-07-24T09:44:18.729Z,5.60
2018-07-24T09:45:18.870Z,10.80
2018-07-24T09:46:19.009Z,8.10
2018-07-24T09:47:19.203Z,14.40
2018-07-24T09:48:19.349Z,13.90
2018-07-24T09:49:19.494Z,9.50
2018-07-24T09:50:19.648Z,6.50
2018-07-24T09:51:19.800Z,5.70
2018-07-24T09:52:19.942Z,7.30
2018-07-24T09:53:20.110Z,5.90
2018-07-24T09:54:20.239Z,5.60
2018-07-24T09:55:20.378Z,5.60
2018-07-24T09:56:20.540Z,5.60
2018-07-24T09:57:20.668Z,5.60
2018-07-24T09:58:20.823Z,7.00
2018-07-24T09:59:20.997Z,5.30
2018-07-24T10:00:21.119Z,5.70
2018-07-24T10:01:21.270Z,5.30
2018-07-24T10:02:21.428Z,5.60
2018-07-24T10:03:21.560Z,5.60
2018-07-24T10:04:21.707Z,5.90
2018-07-24T10:05:21.910Z,5.40
2018-07-24T10:06:22.001Z,5.30
2018-07-24T10:07:22.147Z,5.20
2018-07-24T10:08:22.285Z,5.20
2018-07-24T10:09:22.431Z,5.30
2018-07-24T10:10:22.566Z,5.20
2018-07-24T10:11:22.730Z,5.80
2018-07-24T10:12:22.869Z,5.90
2018-07-24T10:13:23.395Z,6.30
2018-07-24T10:14:23.189Z,6.30
2018-07-24T10:15:23.333Z,5.40
2018-07-24T10:16:23.488Z,5.50
2018-07-24T10:17:23.626Z,5.60
2018-07-24T10:18:23.769Z,5.30
2018-07-24T10:19:23.910Z,6.10
2018-07-24T10:20:24.058Z,6.10
2018-07-24T10:21:24.201Z,6.10
2018-07-24T10:22:24.415Z,6.10
2018-07-24T10:23:24.519Z,5.40
2018-07-24T10:24:24.670Z,5.90
2018-07-24T10:25:24.836Z,5.70
2018-07-24T10:26:24.960Z,5.50
2018-07-24T10:27:25.104Z,5.30
2018-07-24T10:28:25.266Z,7.70
2018-07-24T10:29:25.410Z,5.30
2018-07-24T10:30:25.594Z,5.60
2018-07-24T10:31:25.705Z,8.00
2018-07-24T10:32:25.847Z,8.50
2018-07-24T10:33:25.989Z,7.10
2018-07-24T10:34:26.137Z,6.50
2018-07-24T10:35:26.277Z,5.30
2018-07-24T10:36:26.449Z,5.10
2018-07-24T10:37:26.574Z,5.10
2018-07-24T10:38:26.718Z,5.80
2018-07-24T10:39:26.863Z,5.10
2018-07-24T10:40:27.026Z,5.70
2018-07-24T10:41:27.152Z,5.10
2018-07-24T10:42:27.300Z,6.60
2018-07-24T10:43:27.449Z,5.30
2018-07-24T10:44:27.605Z,5.20
2018-07-24T10:45:27.765Z,5.20
2018-07-24T10:46:27.899Z,5.40
2018-07-24T10:47:28.054Z,5.30
2018-07-24T10:48:28.199Z,5.20
2018-07-24T10:49:28.352Z,5.60
2018-07-24T10:50:28.503Z,6.00
2018-07-24T10:51:28.644Z,7.60
2018-07-24T10:52:28.789Z,5.00
2018-07-24T10:53:28.933Z,5.30
2018-07-24T10:54:29.086Z,5.70
2018-07-24T10:55:29.235Z,5.00
2018-07-24T10:56:29.381Z,5.40
2018-07-24T10:57:29.527Z,5.90
2018-07-24T10:58:29.665Z,5.30
2018-07-24T10:59:29.809Z,5.00
2018-07-24T11:00:29.978Z,7.80
2018-07-24T11:01:30.113Z,4.80
2018-07-24T11:02:30.263Z,4.90
2018-07-24T11:03:30.414Z,5.50
2018-07-24T11:04:30.565Z,5.40
2018-07-24T11:05:30.706Z,6.20
2018-07-24T11:06:30.855Z,5.40
2018-07-24T11:07:31.003Z,5.20
2018-07-24T11:08:31.150Z,5.30
2018-07-24T11:09:31.303Z,5.00
2018-07-24T11:10:31.464Z,4.50
2018-07-24T11:11:31.598Z,5.80
2018-07-24T11:12:31.745Z,6.50
2018-07-24T11:13:31.887Z,6.60
2018-07-24T11:14:32.045Z,6.50
2018-07-24T11:15:32.198Z,6.00
2018-07-24T11:16:32.411Z,5.10
2018-07-24T11:17:32.486Z,5.00
2018-07-24T11:18:32.632Z,5.10
2018-07-24T11:19:32.777Z,5.30
2018-07-24T11:20:32.924Z,4.50
2018-07-24T11:21:33.080Z,5.40
2018-07-24T11:22:33.345Z,7.10
2018-07-24T11:23:33.357Z,6.00
2018-07-24T11:24:33.552Z,4.50
2018-07-24T11:25:33.691Z,4.80
2018-07-24T11:26:33.831Z,4.60
2018-07-24T11:27:34.005Z,4.80
2018-07-24T11:28:34.142Z,5.60
2018-07-24T11:29:34.298Z,4.70
2018-07-24T11:30:34.447Z,4.50
2018-07-24T11:31:34.588Z,5.50
2018-07-24T11:32:34.767Z,4.30
2018-07-24T11:33:35.035Z,5.90
2018-07-24T11:34:35.071Z,4.50
2018-07-24T11:35:35.273Z,8.30
2018-07-24T11:36:35.449Z,4.50
2018-07-24T11:37:35.536Z,4.80
2018-07-24T11:38:35.744Z,4.40
2018-07-24T11:39:35.855Z,4.80
2018-07-24T11:40:35.993Z,5.10
2018-07-24T11:41:36.145Z,6.30
2018-07-24T11:42:36.301Z,4.20
2018-07-24T11:43:36.445Z,5.10
2018-07-24T11:44:36.590Z,4.10
2018-07-24T11:45:36.752Z,4.10
2018-07-24T11:46:36.939Z,4.20
2018-07-24T11:47:37.044Z,4.10
2018-07-24T11:48:37.186Z,3.70
2018-07-24T11:49:37.333Z,4.40
2018-07-24T11:50:37.474Z,3.90
2018-07-24T11:51:37.746Z,4.20
2018-07-24T11:52:37.778Z,4.40
2018-07-24T11:53:37.924Z,4.00
2018-07-24T11:54:38.094Z,5.40
2018-07-24T11:55:38.224Z,4.10
2018-07-24T11:56:38.369Z,4.60
2018-07-24T11:57:38.572Z,4.10
2018-07-24T11:58:38.747Z,4.50
2018-07-24T11:59:38.827Z,3.70
2018-07-24T12:00:38.979Z,3.90
2018-07-24T12:01:39.123Z,4.70
2018-07-24T12:02:39.269Z,8.00
2018-07-24T12:03:39.536Z,4.50
2018-07-24T12:04:39.611Z,4.30
2018-07-24T12:05:39.717Z,4.60
2018-07-24T12:06:39.889Z,3.90
2018-07-24T12:07:40.035Z,3.90
2018-07-24T12:08:40.175Z,4.50
2018-07-24T12:09:40.338Z,4.70
2018-07-24T12:10:40.481Z,3.90
2018-07-24T12:11:40.642Z,3.80
2018-07-24T12:12:40.795Z,4.20
2018-07-24T12:13:40.938Z,5.50
2018-07-24T12:14:41.116Z,4.20
2018-07-24T12:15:41.252Z,3.40
2018-07-24T12:16:41.392Z,3.70
2018-07-24T12:17:41.539Z,3.70
2018-07-24T12:18:41.681Z,3.20
2018-07-24T12:19:41.905Z,3.30
2018-07-24T12:20:41.988Z,3.00
2018-07-24T12:21:42.133Z,4.80
2018-07-24T12:22:42.284Z,2.90
2018-07-24T12:23:42.441Z,3.30
2018-07-24T12:24:42.591Z,3.50
2018-07-24T12:25:42.734Z,3.80
2018-07-24T12:26:42.891Z,3.00
2018-07-24T12:27:43.042Z,3.30
2018-07-24T12:28:43.185Z,3.30
2018-07-24T12:29:43.353Z,4.10
2018-07-24T12:30:43.490Z,3.10
2018-07-24T12:31:43.630Z,3.10
2018-07-24T12:32:43.774Z,3.40
2018-07-24T12:33:43.924Z,3.80
2018-07-24T12:34:44.062Z,4.00
2018-07-24T12:35:44.218Z,4.40
2018-07-24T12:36:44.358Z,3.90
2018-07-24T12:37:44.500Z,3.80
2018-07-24T12:38:44.653Z,3.80
2018-07-24T12:39:44.810Z,6.20
2018-07-24T12:40:44.960Z,3.60
2018-07-24T12:41:45.109Z,3.50
2018-07-24T12:42:45.254Z,4.30
2018-07-24T12:43:45.405Z,4.50
2018-07-24T12:44:45.556Z,3.90
2018-07-24T12:45:45.700Z,3.40
2018-07-24T12:46:45.844Z,3.90
2018-07-24T12:47:45.990Z,3.90
2018-07-24T12:48:46.139Z,3.60
2018-07-24T12:49:46.282Z,3.70
2018-07-24T12:50:46.427Z,3.90
2018-07-24T12:51:46.575Z,4.70
2018-07-24T12:52:46.720Z,6.10
2018-07-24T12:53:46.863Z,3.60
2018-07-24T12:54:47.019Z,3.90
2018-07-24T12:55:47.161Z,3.50
2018-07-24T12:56:47.314Z,4.00
2018-07-24T12:57:47.462Z,4.50
2018-07-24T12:58:47.607Z,5.10
2018-07-24T12:59:47.761Z,4.10
2018-07-24T13:00:47.908Z,7.20
2018-07-24T13:01:48.055Z,3.50
2018-07-24T13:02:48.200Z,4.30
2018-07-24T13:03:48.374Z,5.30
2018-07-24T13:04:48.517Z,4.30
2018-07-24T13:05:48.657Z,3.30
2018-07-24T13:06:48.820Z,5.20
2018-07-24T13:07:48.964Z,7.60
2018-07-24T13:08:49.120Z,5.40
2018-07-24T13:09:49.270Z,3.70
2018-07-24T13:10:49.459Z,3.40
2018-07-24T13:11:49.580Z,5.80
2018-07-24T13:12:49.737Z,3.90
2018-07-24T13:13:49.876Z,4.60
2018-07-24T13:14:50.030Z,3.70
2018-07-24T13:15:50.174Z,3.40
2018-07-24T13:16:50.318Z,3.30
2018-07-24T13:17:50.466Z,3.10
2018-07-24T13:18:50.630Z,3.40